HESN

Aswan International Airport

Aswan, Egypt
TAF HESN 221100Z 2212/2318 01006KT CAVOK
Issued Valid From Valid To
Jan-22 @ 11:00 UTC
(6 hours ago)
Jan-22 @ 12:00 UTC
(5 hours ago)
Jan-23 @ 18:00 UTC
(-1 days ago)
Jan-22 @ 12:00 to Jan-23 @ 18:00
TAF HESN 221100Z 2212/2318 01006KT CAVOK
Wind Visibility Clouds Conditions
10° at 6 knots 10,000+ meters
  • No significant clouds
TAF HESN 221100Z 2212/2318 01006KT CAVOK
Issued Jan-22 @ 11:00 UTC
(6 hours ago)
Valid From Jan-22 @ 12:00 UTC
(5 hours ago)
Valid To Jan-23 @ 18:00 UTC
(-1 days ago)
Jan-22 @ 12:00 - Jan-23 @ 18:00
Wind Visibility
10° at 6 knots 10,000+ meters
Clouds
  • No significant clouds
Conditions